sensor_id;sensor_type;location;lat;lon;timestamp;temperature;humidity
20171;DHT22;10245;51.344;6.620;2022-08-01T00:02:06;22.50;99.90
20171;DHT22;10245;51.344;6.620;2022-08-01T00:04:33;22.20;99.90
20171;DHT22;10245;51.344;6.620;2022-08-01T00:06:56;22.40;99.90
20171;DHT22;10245;51.344;6.620;2022-08-01T00:09:20;22.50;99.90
20171;DHT22;10245;51.344;6.620;2022-08-01T00:11:47;22.30;99.90
20171;DHT22;10245;51.344;6.620;2022-08-01T00:14:27;22.30;99.90
20171;DHT22;10245;51.344;6.620;2022-08-01T00:16:53;22.40;99.90
20171;DHT22;10245;51.344;6.620;2022-08-01T00:19:17;22.50;99.90
20171;DHT22;10245;51.344;6.620;2022-08-01T00:21:41;22.30;99.90
20171;DHT22;10245;51.344;6.620;2022-08-01T00:24:25;22.20;99.90
20171;DHT22;10245;51.344;6.620;2022-08-01T00:26:51;22.40;99.90
20171;DHT22;10245;51.344;6.620;2022-08-01T00:29:14;22.30;99.90
20171;DHT22;10245;51.344;6.620;2022-08-01T00:31:58;22.30;99.90
20171;DHT22;10245;51.344;6.620;2022-08-01T00:34:22;22.40;99.90
20171;DHT22;10245;51.344;6.620;2022-08-01T00:36:45;22.20;99.90
20171;DHT22;10245;51.344;6.620;2022-08-01T00:39:09;22.20;99.90
20171;DHT22;10245;51.344;6.620;2022-08-01T00:41:33;22.30;99.90
20171;DHT22;10245;51.344;6.620;2022-08-01T00:43:58;22.20;99.90
20171;DHT22;10245;51.344;6.620;2022-08-01T00:46:27;22.10;99.90
20171;DHT22;10245;51.344;6.620;2022-08-01T00:48:51;22.10;99.90
20171;DHT22;10245;51.344;6.620;2022-08-01T00:51:16;22.20;99.90
20171;DHT22;10245;51.344;6.620;2022-08-01T00:53:40;22.10;99.90
20171;DHT22;10245;51.344;6.620;2022-08-01T00:56:13;22.30;99.90
20171;DHT22;10245;51.344;6.620;2022-08-01T00:58:37;22.20;99.90
20171;DHT22;10245;51.344;6.620;2022-08-01T01:01:02;22.10;99.90
20171;DHT22;10245;51.344;6.620;2022-08-01T01:03:29;22.20;99.90
20171;DHT22;10245;51.344;6.620;2022-08-01T01:06:25;22.20;99.90
20171;DHT22;10245;51.344;6.620;2022-08-01T01:08:58;22.20;99.90
20171;DHT22;10245;51.344;6.620;2022-08-01T01:11:31;22.20;99.90
20171;DHT22;10245;51.344;6.620;2022-08-01T01:14:04;22.00;99.90
20171;DHT22;10245;51.344;6.620;2022-08-01T01:16:35;22.10;99.90
20171;DHT22;10245;51.344;6.620;2022-08-01T01:19:01;22.10;99.90
20171;DHT22;10245;51.344;6.620;2022-08-01T01:21:47;22.20;99.90
20171;DHT22;10245;51.344;6.620;2022-08-01T01:24:37;22.10;99.90
20171;DHT22;10245;51.344;6.620;2022-08-01T01:27:13;22.20;99.90
20171;DHT22;10245;51.344;6.620;2022-08-01T01:29:47;22.30;99.90
20171;DHT22;10245;51.344;6.620;2022-08-01T01:32:25;22.10;99.90
20171;DHT22;10245;51.344;6.620;2022-08-01T01:34:56;22.00;99.90
20171;DHT22;10245;51.344;6.620;2022-08-01T01:37:25;21.90;99.90
20171;DHT22;10245;51.344;6.620;2022-08-01T01:39:50;21.90;99.90
20171;DHT22;10245;51.344;6.620;2022-08-01T01:42:16;22.00;99.90
20171;DHT22;10245;51.344;6.620;2022-08-01T01:44:43;21.90;99.90
20171;DHT22;10245;51.344;6.620;2022-08-01T01:47:07;22.10;99.90
20171;DHT22;10245;51.344;6.620;2022-08-01T01:49:32;22.10;99.90
20171;DHT22;10245;51.344;6.620;2022-08-01T01:51:57;22.20;99.90
20171;DHT22;10245;51.344;6.620;2022-08-01T01:54:30;22.00;99.90
20171;DHT22;10245;51.344;6.620;2022-08-01T01:56:58;21.90;99.90
20171;DHT22;10245;51.344;6.620;2022-08-01T01:59:28;22.00;99.90
20171;DHT22;10245;51.344;6.620;2022-08-01T02:01:57;22.10;99.90
20171;DHT22;10245;51.344;6.620;2022-08-01T02:04:28;22.00;99.90
20171;DHT22;10245;51.344;6.620;2022-08-01T02:06:53;22.10;99.90
20171;DHT22;10245;51.344;6.620;2022-08-01T02:09:19;22.20;99.90
20171;DHT22;10245;51.344;6.620;2022-08-01T02:11:45;22.10;99.90
20171;DHT22;10245;51.344;6.620;2022-08-01T02:14:29;22.10;99.90
20171;DHT22;10245;51.344;6.620;2022-08-01T02:16:57;22.20;99.90
20171;DHT22;10245;51.344;6.620;2022-08-01T02:19:22;22.10;99.90
20171;DHT22;10245;51.344;6.620;2022-08-01T02:21:52;22.10;99.90
20171;DHT22;10245;51.344;6.620;2022-08-01T02:24:23;22.10;99.90
20171;DHT22;10245;51.344;6.620;2022-08-01T02:26:53;22.10;99.90
20171;DHT22;10245;51.344;6.620;2022-08-01T02:29:29;22.10;99.90
20171;DHT22;10245;51.344;6.620;2022-08-01T02:31:58;22.10;99.90
20171;DHT22;10245;51.344;6.620;2022-08-01T02:34:24;22.10;99.90
20171;DHT22;10245;51.344;6.620;2022-08-01T02:36:54;22.00;99.90
20171;DHT22;10245;51.344;6.620;2022-08-01T02:39:21;22.10;99.90
20171;DHT22;10245;51.344;6.620;2022-08-01T02:41:48;22.10;99.90
20171;DHT22;10245;51.344;6.620;2022-08-01T02:44:18;22.20;99.90
20171;DHT22;10245;51.344;6.620;2022-08-01T02:46:50;22.20;99.90
20171;DHT22;10245;51.344;6.620;2022-08-01T02:49:16;22.10;99.90
20171;DHT22;10245;51.344;6.620;2022-08-01T02:51:42;22.10;99.90
20171;DHT22;10245;51.344;6.620;2022-08-01T02:54:08;22.10;99.90
20171;DHT22;10245;51.344;6.620;2022-08-01T02:56:34;22.00;99.90
20171;DHT22;10245;51.344;6.620;2022-08-01T02:58:59;22.10;99.90
20171;DHT22;10245;51.344;6.620;2022-08-01T03:01:24;22.00;99.90
20171;DHT22;10245;51.344;6.620;2022-08-01T03:03:50;21.90;99.90
20171;DHT22;10245;51.344;6.620;2022-08-01T03:06:16;22.10;99.90
20171;DHT22;10245;51.344;6.620;2022-08-01T03:08:41;21.90;99.90
20171;DHT22;10245;51.344;6.620;2022-08-01T03:11:06;21.90;99.90
20171;DHT22;10245;51.344;6.620;2022-08-01T03:13:32;22.00;99.90
20171;DHT22;10245;51.344;6.620;2022-08-01T03:15:57;22.10;99.90
20171;DHT22;10245;51.344;6.620;2022-08-01T03:18:26;21.90;99.90
20171;DHT22;10245;51.344;6.620;2022-08-01T03:20:52;22.00;99.90
20171;DHT22;10245;51.344;6.620;2022-08-01T03:23:20;22.00;99.90
20171;DHT22;10245;51.344;6.620;2022-08-01T03:25:59;22.10;99.90
20171;DHT22;10245;51.344;6.620;2022-08-01T03:28:24;21.80;99.90
20171;DHT22;10245;51.344;6.620;2022-08-01T03:30:51;22.00;99.90
20171;DHT22;10245;51.344;6.620;2022-08-01T03:33:15;21.90;99.90
20171;DHT22;10245;51.344;6.620;2022-08-01T03:35:42;21.90;99.90
20171;DHT22;10245;51.344;6.620;2022-08-01T03:38:09;21.80;99.90
20171;DHT22;10245;51.344;6.620;2022-08-01T03:40:40;21.80;99.90
20171;DHT22;10245;51.344;6.620;2022-08-01T03:43:10;22.00;99.90
20171;DHT22;10245;51.344;6.620;2022-08-01T03:45:37;22.00;99.90
20171;DHT22;10245;51.344;6.620;2022-08-01T03:48:15;22.10;99.90
20171;DHT22;10245;51.344;6.620;2022-08-01T03:50:43;22.20;99.90
20171;DHT22;10245;51.344;6.620;2022-08-01T03:53:10;22.10;99.90
20171;DHT22;10245;51.344;6.620;2022-08-01T03:55:37;22.10;99.90
20171;DHT22;10245;51.344;6.620;2022-08-01T03:58:03;22.10;99.90
20171;DHT22;10245;51.344;6.620;2022-08-01T04:00:31;22.00;99.90
20171;DHT22;10245;51.344;6.620;2022-08-01T04:02:56;22.20;99.90
20171;DHT22;10245;51.344;6.620;2022-08-01T04:05:20;22.20;99.90
20171;DHT22;10245;51.344;6.620;2022-08-01T04:07:46;22.10;99.90
20171;DHT22;10245;51.344;6.620;2022-08-01T04:10:12;22.20;99.90
20171;DHT22;10245;51.344;6.620;2022-08-01T04:12:38;22.10;99.90
20171;DHT22;10245;51.344;6.620;2022-08-01T04:15:02;22.10;99.90
20171;DHT22;10245;51.344;6.620;2022-08-01T04:17:26;22.10;99.90
20171;DHT22;10245;51.344;6.620;2022-08-01T04:19:50;22.10;99.90
20171;DHT22;10245;51.344;6.620;2022-08-01T04:22:14;22.10;99.90
20171;DHT22;10245;51.344;6.620;2022-08-01T04:24:39;22.00;99.90
20171;DHT22;10245;51.344;6.620;2022-08-01T04:27:08;22.00;99.90
20171;DHT22;10245;51.344;6.620;2022-08-01T04:29:36;22.00;99.90
20171;DHT22;10245;51.344;6.620;2022-08-01T04:32:02;22.10;99.90
20171;DHT22;10245;51.344;6.620;2022-08-01T04:34:28;22.10;99.90
20171;DHT22;10245;51.344;6.620;2022-08-01T04:36:55;22.00;99.90
20171;DHT22;10245;51.344;6.620;2022-08-01T04:39:20;22.00;99.90
20171;DHT22;10245;51.344;6.620;2022-08-01T04:41:50;22.00;99.90
20171;DHT22;10245;51.344;6.620;2022-08-01T04:44:14;22.00;99.90
20171;DHT22;10245;51.344;6.620;2022-08-01T04:46:40;22.10;99.90
20171;DHT22;10245;51.344;6.620;2022-08-01T04:49:05;22.00;99.90
20171;DHT22;10245;51.344;6.620;2022-08-01T04:51:31;22.00;99.90
20171;DHT22;10245;51.344;6.620;2022-08-01T04:53:54;21.90;99.90
20171;DHT22;10245;51.344;6.620;2022-08-01T04:56:20;21.90;99.90
20171;DHT22;10245;51.344;6.620;2022-08-01T04:58:44;22.00;99.90
20171;DHT22;10245;51.344;6.620;2022-08-01T05:01:07;21.90;99.90
20171;DHT22;10245;51.344;6.620;2022-08-01T05:03:33;21.80;99.90
20171;DHT22;10245;51.344;6.620;2022-08-01T05:06:00;21.80;99.90
20171;DHT22;10245;51.344;6.620;2022-08-01T05:08:23;21.70;99.90
20171;DHT22;10245;51.344;6.620;2022-08-01T05:10:50;21.90;99.90
20171;DHT22;10245;51.344;6.620;2022-08-01T05:13:14;21.70;99.90
20171;DHT22;10245;51.344;6.620;2022-08-01T05:15:38;21.70;99.90
20171;DHT22;10245;51.344;6.620;2022-08-01T05:18:02;21.90;99.90
20171;DHT22;10245;51.344;6.620;2022-08-01T05:20:29;21.90;99.90
20171;DHT22;10245;51.344;6.620;2022-08-01T05:22:53;22.10;99.90
20171;DHT22;10245;51.344;6.620;2022-08-01T05:25:18;22.00;99.90
20171;DHT22;10245;51.344;6.620;2022-08-01T05:28:05;22.10;99.90
20171;DHT22;10245;51.344;6.620;2022-08-01T05:30:29;22.00;99.90
20171;DHT22;10245;51.344;6.620;2022-08-01T05:32:52;22.00;99.90
20171;DHT22;10245;51.344;6.620;2022-08-01T05:35:18;22.10;99.90
20171;DHT22;10245;51.344;6.620;2022-08-01T05:37:43;22.00;99.90
20171;DHT22;10245;51.344;6.620;2022-08-01T05:40:08;22.00;99.90
20171;DHT22;10245;51.344;6.620;2022-08-01T05:42:32;21.80;99.90
20171;DHT22;10245;51.344;6.620;2022-08-01T05:44:56;21.80;99.90
20171;DHT22;10245;51.344;6.620;2022-08-01T05:47:19;21.90;99.90
20171;DHT22;10245;51.344;6.620;2022-08-01T05:49:43;21.80;99.90
20171;DHT22;10245;51.344;6.620;2022-08-01T05:52:08;21.70;99.90
20171;DHT22;10245;51.344;6.620;2022-08-01T05:54:33;21.90;99.90
20171;DHT22;10245;51.344;6.620;2022-08-01T05:56:56;22.20;99.90
20171;DHT22;10245;51.344;6.620;2022-08-01T05:59:23;22.00;99.90
20171;DHT22;10245;51.344;6.620;2022-08-01T06:01:47;22.10;99.90
20171;DHT22;10245;51.344;6.620;2022-08-01T06:04:10;22.10;99.90
20171;DHT22;10245;51.344;6.620;2022-08-01T06:06:34;22.20;99.90
20171;DHT22;10245;51.344;6.620;2022-08-01T06:08:58;22.10;99.90
20171;DHT22;10245;51.344;6.620;2022-08-01T06:11:23;22.10;99.90
20171;DHT22;10245;51.344;6.620;2022-08-01T06:13:46;22.20;99.90
20171;DHT22;10245;51.344;6.620;2022-08-01T06:16:10;22.00;99.90
20171;DHT22;10245;51.344;6.620;2022-08-01T06:18:34;22.20;99.30
20171;DHT22;10245;51.344;6.620;2022-08-01T06:20:57;22.20;99.00
20171;DHT22;10245;51.344;6.620;2022-08-01T06:23:21;22.20;99.90
20171;DHT22;10245;51.344;6.620;2022-08-01T06:25:53;22.20;99.90
20171;DHT22;10245;51.344;6.620;2022-08-01T06:28:19;22.10;99.20
20171;DHT22;10245;51.344;6.620;2022-08-01T06:30:42;22.10;99.80
20171;DHT22;10245;51.344;6.620;2022-08-01T06:33:06;22.20;99.50
20171;DHT22;10245;51.344;6.620;2022-08-01T06:35:30;22.00;99.90
20171;DHT22;10245;51.344;6.620;2022-08-01T06:37:54;22.30;98.90
20171;DHT22;10245;51.344;6.620;2022-08-01T06:40:18;22.40;98.90
20171;DHT22;10245;51.344;6.620;2022-08-01T06:42:42;22.20;99.40
20171;DHT22;10245;51.344;6.620;2022-08-01T06:45:10;22.30;99.10
20171;DHT22;10245;51.344;6.620;2022-08-01T06:47:35;22.50;98.60
20171;DHT22;10245;51.344;6.620;2022-08-01T06:49:59;22.50;98.60
20171;DHT22;10245;51.344;6.620;2022-08-01T06:52:22;22.80;98.10
20171;DHT22;10245;51.344;6.620;2022-08-01T06:54:46;23.30;95.80
20171;DHT22;10245;51.344;6.620;2022-08-01T06:57:09;23.40;95.80
20171;DHT22;10245;51.344;6.620;2022-08-01T06:59:33;23.40;95.90
20171;DHT22;10245;51.344;6.620;2022-08-01T07:01:58;23.20;94.40
20171;DHT22;10245;51.344;6.620;2022-08-01T07:04:22;23.80;91.90
20171;DHT22;10245;51.344;6.620;2022-08-01T07:06:49;23.80;89.50
20171;DHT22;10245;51.344;6.620;2022-08-01T07:09:13;23.60;92.80
20171;DHT22;10245;51.344;6.620;2022-08-01T07:11:36;23.70;91.40
20171;DHT22;10245;51.344;6.620;2022-08-01T07:14:00;23.80;91.20
20171;DHT22;10245;51.344;6.620;2022-08-01T07:16:25;24.00;88.80
20171;DHT22;10245;51.344;6.620;2022-08-01T07:18:50;24.30;91.10
20171;DHT22;10245;51.344;6.620;2022-08-01T07:21:13;24.40;89.40
20171;DHT22;10245;51.344;6.620;2022-08-01T07:23:57;24.70;88.20
20171;DHT22;10245;51.344;6.620;2022-08-01T07:26:21;24.30;86.50
20171;DHT22;10245;51.344;6.620;2022-08-01T07:28:44;24.00;89.00
20171;DHT22;10245;51.344;6.620;2022-08-01T07:31:08;23.90;88.90
20171;DHT22;10245;51.344;6.620;2022-08-01T07:33:32;23.90;90.50
20171;DHT22;10245;51.344;6.620;2022-08-01T07:36:11;23.90;89.50
20171;DHT22;10245;51.344;6.620;2022-08-01T07:38:35;24.20;90.30
20171;DHT22;10245;51.344;6.620;2022-08-01T07:40:59;24.40;88.20
20171;DHT22;10245;51.344;6.620;2022-08-01T07:43:22;24.30;87.80
20171;DHT22;10245;51.344;6.620;2022-08-01T07:45:46;24.40;89.00
20171;DHT22;10245;51.344;6.620;2022-08-01T07:48:10;24.40;86.40
20171;DHT22;10245;51.344;6.620;2022-08-01T07:50:34;24.50;87.00
20171;DHT22;10245;51.344;6.620;2022-08-01T07:52:59;24.40;88.30
20171;DHT22;10245;51.344;6.620;2022-08-01T07:55:24;24.10;87.80
20171;DHT22;10245;51.344;6.620;2022-08-01T07:57:48;23.90;85.20
20171;DHT22;10245;51.344;6.620;2022-08-01T08:00:12;24.40;85.70
20171;DHT22;10245;51.344;6.620;2022-08-01T08:02:36;24.70;87.30
20171;DHT22;10245;51.344;6.620;2022-08-01T08:05:00;24.90;85.30
20171;DHT22;10245;51.344;6.620;2022-08-01T08:07:24;25.00;86.80
20171;DHT22;10245;51.344;6.620;2022-08-01T08:09:49;24.90;85.50
20171;DHT22;10245;51.344;6.620;2022-08-01T08:12:13;24.70;87.20
20171;DHT22;10245;51.344;6.620;2022-08-01T08:14:38;24.80;85.90
20171;DHT22;10245;51.344;6.620;2022-08-01T08:17:02;24.50;84.80
20171;DHT22;10245;51.344;6.620;2022-08-01T08:19:25;24.60;86.30
20171;DHT22;10245;51.344;6.620;2022-08-01T08:22:00;24.70;86.00
20171;DHT22;10245;51.344;6.620;2022-08-01T08:24:23;24.40;85.60
20171;DHT22;10245;51.344;6.620;2022-08-01T08:26:51;24.30;84.60
20171;DHT22;10245;51.344;6.620;2022-08-01T08:29:16;24.40;85.60
20171;DHT22;10245;51.344;6.620;2022-08-01T08:31:40;24.50;84.50
20171;DHT22;10245;51.344;6.620;2022-08-01T08:34:13;24.90;85.50
20171;DHT22;10245;51.344;6.620;2022-08-01T08:36:38;24.80;85.20
20171;DHT22;10245;51.344;6.620;2022-08-01T08:39:08;25.10;83.30
20171;DHT22;10245;51.344;6.620;2022-08-01T08:41:33;25.00;86.00
20171;DHT22;10245;51.344;6.620;2022-08-01T08:44:02;25.40;84.00
20171;DHT22;10245;51.344;6.620;2022-08-01T08:46:27;25.20;85.00
20171;DHT22;10245;51.344;6.620;2022-08-01T08:48:51;25.20;83.30
20171;DHT22;10245;51.344;6.620;2022-08-01T08:51:18;25.10;83.50
20171;DHT22;10245;51.344;6.620;2022-08-01T08:53:46;25.10;81.70
20171;DHT22;10245;51.344;6.620;2022-08-01T08:56:12;25.00;81.40
20171;DHT22;10245;51.344;6.620;2022-08-01T08:58:36;24.50;81.00
20171;DHT22;10245;51.344;6.620;2022-08-01T09:01:02;24.60;82.50
20171;DHT22;10245;51.344;6.620;2022-08-01T09:03:28;24.80;84.00
20171;DHT22;10245;51.344;6.620;2022-08-01T09:05:51;24.70;83.30
20171;DHT22;10245;51.344;6.620;2022-08-01T09:08:15;24.60;82.70
20171;DHT22;10245;51.344;6.620;2022-08-01T09:10:39;24.90;82.10
20171;DHT22;10245;51.344;6.620;2022-08-01T09:13:05;24.90;82.50
20171;DHT22;10245;51.344;6.620;2022-08-01T09:15:38;25.00;80.30
20171;DHT22;10245;51.344;6.620;2022-08-01T09:18:08;24.80;80.30
20171;DHT22;10245;51.344;6.620;2022-08-01T09:20:31;25.00;81.10
20171;DHT22;10245;51.344;6.620;2022-08-01T09:22:57;25.00;81.30
20171;DHT22;10245;51.344;6.620;2022-08-01T09:25:24;24.40;81.70
20171;DHT22;10245;51.344;6.620;2022-08-01T09:28:08;24.70;81.60
20171;DHT22;10245;51.344;6.620;2022-08-01T09:30:37;25.00;80.20
20171;DHT22;10245;51.344;6.620;2022-08-01T09:33:03;25.00;81.50
20171;DHT22;10245;51.344;6.620;2022-08-01T09:35:44;25.10;80.80
20171;DHT22;10245;51.344;6.620;2022-08-01T09:38:19;25.40;78.80
20171;DHT22;10245;51.344;6.620;2022-08-01T09:40:49;25.30;81.20
20171;DHT22;10245;51.344;6.620;2022-08-01T09:43:14;25.60;79.90
20171;DHT22;10245;51.344;6.620;2022-08-01T09:45:39;25.50;77.70
20171;DHT22;10245;51.344;6.620;2022-08-01T09:48:10;25.40;78.90
20171;DHT22;10245;51.344;6.620;2022-08-01T09:50:39;25.70;78.30
20171;DHT22;10245;51.344;6.620;2022-08-01T09:53:05;25.80;77.60
20171;DHT22;10245;51.344;6.620;2022-08-01T09:55:29;25.80;76.20
20171;DHT22;10245;51.344;6.620;2022-08-01T09:57:55;25.80;76.60
20171;DHT22;10245;51.344;6.620;2022-08-01T10:00:20;26.00;75.10
20171;DHT22;10245;51.344;6.620;2022-08-01T10:03:19;26.00;75.00
20171;DHT22;10245;51.344;6.620;2022-08-01T10:05:45;26.10;77.10
20171;DHT22;10245;51.344;6.620;2022-08-01T10:08:12;26.10;74.50
20171;DHT22;10245;51.344;6.620;2022-08-01T10:11:04;26.00;75.80
20171;DHT22;10245;51.344;6.620;2022-08-01T10:13:33;25.90;75.60
20171;DHT22;10245;51.344;6.620;2022-08-01T10:15:57;25.80;73.00
20171;DHT22;10245;51.344;6.620;2022-08-01T10:18:22;26.00;75.20
20171;DHT22;10245;51.344;6.620;2022-08-01T10:20:47;26.10;74.00
20171;DHT22;10245;51.344;6.620;2022-08-01T10:23:13;26.20;74.90
20171;DHT22;10245;51.344;6.620;2022-08-01T10:25:40;25.40;74.40
20171;DHT22;10245;51.344;6.620;2022-08-01T10:28:13;25.60;75.10
20171;DHT22;10245;51.344;6.620;2022-08-01T10:30:45;25.40;74.60
20171;DHT22;10245;51.344;6.620;2022-08-01T10:33:10;25.70;72.10
20171;DHT22;10245;51.344;6.620;2022-08-01T10:35:55;25.70;71.90
20171;DHT22;10245;51.344;6.620;2022-08-01T10:38:20;25.50;70.00
20171;DHT22;10245;51.344;6.620;2022-08-01T10:40:45;25.70;73.50
20171;DHT22;10245;51.344;6.620;2022-08-01T10:43:10;25.90;74.60
20171;DHT22;10245;51.344;6.620;2022-08-01T10:45:34;26.10;71.70
20171;DHT22;10245;51.344;6.620;2022-08-01T10:48:02;26.20;72.70
20171;DHT22;10245;51.344;6.620;2022-08-01T10:50:33;26.50;69.00
20171;DHT22;10245;51.344;6.620;2022-08-01T10:53:08;26.50;65.90
20171;DHT22;10245;51.344;6.620;2022-08-01T10:55:57;26.60;65.60
20171;DHT22;10245;51.344;6.620;2022-08-01T10:58:25;26.80;66.90
20171;DHT22;10245;51.344;6.620;2022-08-01T11:01:18;26.10;65.00
20171;DHT22;10245;51.344;6.620;2022-08-01T11:03:44;26.40;66.60
20171;DHT22;10245;51.344;6.620;2022-08-01T11:06:24;27.10;66.70
20171;DHT22;10245;51.344;6.620;2022-08-01T11:08:53;26.80;67.00
20171;DHT22;10245;51.344;6.620;2022-08-01T11:11:19;26.60;67.00
20171;DHT22;10245;51.344;6.620;2022-08-01T11:14:00;26.80;67.20
20171;DHT22;10245;51.344;6.620;2022-08-01T11:16:31;26.70;66.60
20171;DHT22;10245;51.344;6.620;2022-08-01T11:18:57;25.80;73.50
20171;DHT22;10245;51.344;6.620;2022-08-01T11:21:20;25.20;74.80
20171;DHT22;10245;51.344;6.620;2022-08-01T11:24:08;25.90;74.70
20171;DHT22;10245;51.344;6.620;2022-08-01T11:26:33;26.20;73.00
20171;DHT22;10245;51.344;6.620;2022-08-01T11:29:17;26.40;73.30
20171;DHT22;10245;51.344;6.620;2022-08-01T11:31:43;25.80;72.40
20171;DHT22;10245;51.344;6.620;2022-08-01T11:34:09;25.50;72.90
20171;DHT22;10245;51.344;6.620;2022-08-01T11:36:33;26.00;71.70
20171;DHT22;10245;51.344;6.620;2022-08-01T11:39:17;26.00;71.80
20171;DHT22;10245;51.344;6.620;2022-08-01T11:41:45;25.60;72.50
20171;DHT22;10245;51.344;6.620;2022-08-01T11:44:12;25.70;72.50
20171;DHT22;10245;51.344;6.620;2022-08-01T11:46:49;25.60;72.20
20171;DHT22;10245;51.344;6.620;2022-08-01T11:49:43;26.20;70.40
20171;DHT22;10245;51.344;6.620;2022-08-01T11:52:14;26.80;69.10
20171;DHT22;10245;51.344;6.620;2022-08-01T11:54:40;26.70;68.20
20171;DHT22;10245;51.344;6.620;2022-08-01T11:57:08;26.00;72.30
20171;DHT22;10245;51.344;6.620;2022-08-01T11:59:37;25.90;72.60
20171;DHT22;10245;51.344;6.620;2022-08-01T12:02:33;26.10;71.50
20171;DHT22;10245;51.344;6.620;2022-08-01T12:04:59;25.90;71.20
20171;DHT22;10245;51.344;6.620;2022-08-01T12:07:27;26.00;71.80
20171;DHT22;10245;51.344;6.620;2022-08-01T12:09:59;26.00;71.60
20171;DHT22;10245;51.344;6.620;2022-08-01T12:12:26;25.80;69.30
20171;DHT22;10245;51.344;6.620;2022-08-01T12:14:53;25.60;72.00
20171;DHT22;10245;51.344;6.620;2022-08-01T12:17:18;25.80;71.20
20171;DHT22;10245;51.344;6.620;2022-08-01T12:19:41;26.10;72.40
20171;DHT22;10245;51.344;6.620;2022-08-01T12:22:10;26.30;71.80
20171;DHT22;10245;51.344;6.620;2022-08-01T12:24:35;25.80;68.60
20171;DHT22;10245;51.344;6.620;2022-08-01T12:26:59;26.10;70.40
20171;DHT22;10245;51.344;6.620;2022-08-01T12:29:38;26.10;70.80
20171;DHT22;10245;51.344;6.620;2022-08-01T12:32:04;26.60;67.20
20171;DHT22;10245;51.344;6.620;2022-08-01T12:34:49;26.70;66.40
20171;DHT22;10245;51.344;6.620;2022-08-01T12:37:13;26.70;64.80
20171;DHT22;10245;51.344;6.620;2022-08-01T12:39:38;26.70;64.60
20171;DHT22;10245;51.344;6.620;2022-08-01T12:42:06;26.20;65.20
20171;DHT22;10245;51.344;6.620;2022-08-01T12:44:32;26.50;65.30
20171;DHT22;10245;51.344;6.620;2022-08-01T12:46:58;26.30;68.40
20171;DHT22;10245;51.344;6.620;2022-08-01T12:49:22;26.00;70.50
20171;DHT22;10245;51.344;6.620;2022-08-01T12:51:46;26.30;70.30
20171;DHT22;10245;51.344;6.620;2022-08-01T12:54:18;26.70;66.10
20171;DHT22;10245;51.344;6.620;2022-08-01T12:56:42;26.30;70.10
20171;DHT22;10245;51.344;6.620;2022-08-01T12:59:21;26.40;68.00
20171;DHT22;10245;51.344;6.620;2022-08-01T13:01:47;26.70;68.30
20171;DHT22;10245;51.344;6.620;2022-08-01T13:04:18;26.70;66.90
20171;DHT22;10245;51.344;6.620;2022-08-01T13:06:42;26.80;68.00
20171;DHT22;10245;51.344;6.620;2022-08-01T13:09:08;26.50;67.40
20171;DHT22;10245;51.344;6.620;2022-08-01T13:11:33;26.10;70.50
20171;DHT22;10245;51.344;6.620;2022-08-01T13:13:57;26.10;70.60
20171;DHT22;10245;51.344;6.620;2022-08-01T13:16:22;26.20;70.30
20171;DHT22;10245;51.344;6.620;2022-08-01T13:19:07;26.30;72.20
20171;DHT22;10245;51.344;6.620;2022-08-01T13:21:32;26.00;70.40
20171;DHT22;10245;51.344;6.620;2022-08-01T13:24:15;26.30;70.30
20171;DHT22;10245;51.344;6.620;2022-08-01T13:26:43;26.10;69.00
20171;DHT22;10245;51.344;6.620;2022-08-01T13:29:10;26.20;69.20
20171;DHT22;10245;51.344;6.620;2022-08-01T13:31:34;26.30;69.60
20171;DHT22;10245;51.344;6.620;2022-08-01T13:33:59;26.00;70.70
20171;DHT22;10245;51.344;6.620;2022-08-01T13:36:22;25.70;71.50
20171;DHT22;10245;51.344;6.620;2022-08-01T13:38:50;25.90;70.90
20171;DHT22;10245;51.344;6.620;2022-08-01T13:41:33;26.10;72.50
20171;DHT22;10245;51.344;6.620;2022-08-01T13:43:57;26.20;70.40
20171;DHT22;10245;51.344;6.620;2022-08-01T13:46:20;26.00;70.90
20171;DHT22;10245;51.344;6.620;2022-08-01T13:48:44;25.70;69.90
20171;DHT22;10245;51.344;6.620;2022-08-01T13:51:11;25.70;69.20
20171;DHT22;10245;51.344;6.620;2022-08-01T13:53:43;25.70;70.10
20171;DHT22;10245;51.344;6.620;2022-08-01T13:56:08;25.50;70.60
20171;DHT22;10245;51.344;6.620;2022-08-01T13:58:32;25.50;71.20
20171;DHT22;10245;51.344;6.620;2022-08-01T14:00:56;25.70;70.30
20171;DHT22;10245;51.344;6.620;2022-08-01T14:03:20;25.90;70.00
20171;DHT22;10245;51.344;6.620;2022-08-01T14:05:55;26.00;70.50
20171;DHT22;10245;51.344;6.620;2022-08-01T14:08:19;26.20;69.20
20171;DHT22;10245;51.344;6.620;2022-08-01T14:10:46;26.30;69.10
20171;DHT22;10245;51.344;6.620;2022-08-01T14:13:11;26.00;70.00
20171;DHT22;10245;51.344;6.620;2022-08-01T14:15:36;26.00;69.30
20171;DHT22;10245;51.344;6.620;2022-08-01T14:18:01;26.40;68.40
20171;DHT22;10245;51.344;6.620;2022-08-01T14:20:27;26.50;67.50
20171;DHT22;10245;51.344;6.620;2022-08-01T14:22:50;26.50;68.40
20171;DHT22;10245;51.344;6.620;2022-08-01T14:25:14;26.50;69.10
20171;DHT22;10245;51.344;6.620;2022-08-01T14:28:00;26.50;68.50
20171;DHT22;10245;51.344;6.620;2022-08-01T14:30:25;26.30;70.60
20171;DHT22;10245;51.344;6.620;2022-08-01T14:32:48;26.40;69.70
20171;DHT22;10245;51.344;6.620;2022-08-01T14:35:12;26.30;71.50
20171;DHT22;10245;51.344;6.620;2022-08-01T14:37:36;26.10;68.30
20171;DHT22;10245;51.344;6.620;2022-08-01T14:40:00;26.00;69.90
20171;DHT22;10245;51.344;6.620;2022-08-01T14:42:30;26.30;71.30
20171;DHT22;10245;51.344;6.620;2022-08-01T14:44:53;26.10;68.20
20171;DHT22;10245;51.344;6.620;2022-08-01T14:47:18;25.60;70.00
20171;DHT22;10245;51.344;6.620;2022-08-01T14:49:43;25.70;70.30
20171;DHT22;10245;51.344;6.620;2022-08-01T14:52:07;26.30;69.50
20171;DHT22;10245;51.344;6.620;2022-08-01T14:54:31;26.00;68.00
20171;DHT22;10245;51.344;6.620;2022-08-01T14:57:00;26.00;69.00
20171;DHT22;10245;51.344;6.620;2022-08-01T14:59:24;26.10;68.30
20171;DHT22;10245;51.344;6.620;2022-08-01T15:01:48;26.20;69.10
20171;DHT22;10245;51.344;6.620;2022-08-01T15:04:13;26.50;68.40
20171;DHT22;10245;51.344;6.620;2022-08-01T15:06:36;26.60;67.50
20171;DHT22;10245;51.344;6.620;2022-08-01T15:09:00;25.90;68.20
20171;DHT22;10245;51.344;6.620;2022-08-01T15:11:29;26.10;68.90
20171;DHT22;10245;51.344;6.620;2022-08-01T15:13:55;26.30;69.60
20171;DHT22;10245;51.344;6.620;2022-08-01T15:16:36;26.20;68.00
20171;DHT22;10245;51.344;6.620;2022-08-01T15:19:00;25.90;67.30
20171;DHT22;10245;51.344;6.620;2022-08-01T15:21:25;26.00;68.40
20171;DHT22;10245;51.344;6.620;2022-08-01T15:24:03;25.70;67.30
20171;DHT22;10245;51.344;6.620;2022-08-01T15:26:27;25.30;68.30
20171;DHT22;10245;51.344;6.620;2022-08-01T15:28:51;25.20;68.00
20171;DHT22;10245;51.344;6.620;2022-08-01T15:31:15;25.50;69.00
20171;DHT22;10245;51.344;6.620;2022-08-01T15:33:39;26.00;68.60